createdAt,value
2017-12-15T00:00:52.108Z,4.6
2017-12-15T00:01:52.119Z,4.6
2017-12-15T00:02:52.143Z,4.63
2017-12-15T00:03:52.154Z,4.56
2017-12-15T00:04:52.415Z,4.6
2017-12-15T00:05:51.929Z,4.58
2017-12-15T00:06:52.195Z,4.56
2017-12-15T00:07:51.952Z,4.5
2017-12-15T00:08:52.220Z,4.49
2017-12-15T00:09:51.977Z,4.5
2017-12-15T00:10:52.249Z,4.52
2017-12-15T00:11:52.513Z,4.52
2017-12-15T00:12:52.526Z,4.45
2017-12-15T00:13:52.290Z,4.55
2017-12-15T00:14:52.302Z,4.38
2017-12-15T00:15:52.520Z,4.48
2017-12-15T00:16:52.586Z,4.48
2017-12-15T00:17:52.395Z,4.55
2017-12-15T00:18:52.617Z,4.63
2017-12-15T00:19:52.370Z,4.6
2017-12-15T00:20:52.387Z,4.55
2017-12-15T00:21:52.657Z,4.52
2017-12-15T00:22:52.419Z,4.52
2017-12-15T00:23:52.686Z,4.49
2017-12-15T00:24:52.502Z,4.48
2017-12-15T00:25:52.458Z,4.37
2017-12-15T00:26:52.473Z,4.32
2017-12-15T00:27:52.232Z,4.42
2017-12-15T00:28:52.755Z,4.53
2017-12-15T00:29:52.767Z,4.53
2017-12-15T00:30:52.532Z,4.56
2017-12-15T00:31:52.545Z,4.44
2017-12-15T00:32:52.357Z,4.45
2017-12-15T00:33:52.827Z,4.48
2017-12-15T00:34:52.587Z,4.48
2017-12-15T00:35:52.851Z,4.63
2017-12-15T00:36:52.614Z,4.58
2017-12-15T00:37:52.634Z,4.41
2017-12-15T00:38:52.890Z,4.28
2017-12-15T00:39:52.653Z,4.2
2017-12-15T00:40:52.918Z,4.24
2017-12-15T00:41:52.929Z,4.16
2017-12-15T00:42:52.695Z,4.04
2017-12-15T00:43:52.713Z,4.04
2017-12-15T00:44:52.722Z,3.86
2017-12-15T00:45:52.732Z,3.92
2017-12-15T00:46:53.004Z,3.78
2017-12-15T00:47:53.016Z,3.77
2017-12-15T00:48:53.028Z,3.78
2017-12-15T00:49:52.586Z,3.77
2017-12-15T00:50:53.064Z,3.78
2017-12-15T00:51:52.819Z,3.8
2017-12-15T00:52:52.834Z,3.66
2017-12-15T00:53:52.845Z,3.69
2017-12-15T00:54:53.110Z,3.62
2017-12-15T00:55:52.871Z,3.59
2017-12-15T00:56:52.883Z,3.5
2017-12-15T00:57:52.898Z,3.44
2017-12-15T00:58:53.162Z,3.41
2017-12-15T00:59:53.178Z,3.37
2017-12-15T01:00:53.194Z,3.37
2017-12-15T01:01:53.202Z,3.47
2017-12-15T01:02:52.961Z,3.44
2017-12-15T01:03:53.229Z,3.45
2017-12-15T01:04:53.062Z,3.45
2017-12-15T01:05:52.753Z,3.53
2017-12-15T01:06:53.021Z,3.6
2017-12-15T01:07:53.027Z,3.59
2017-12-15T01:08:53.041Z,3.59
2017-12-15T01:09:53.405Z,3.58
2017-12-15T01:10:53.069Z,3.59
2017-12-15T01:11:53.081Z,3.65
2017-12-15T01:12:53.354Z,3.59
2017-12-15T01:13:53.360Z,3.56
2017-12-15T01:14:53.119Z,3.55
2017-12-15T01:15:53.386Z,3.63
2017-12-15T01:16:53.400Z,3.74
2017-12-15T01:17:53.416Z,3.62
2017-12-15T01:18:52.932Z,3.56
2017-12-15T01:19:52.983Z,3.58
2017-12-15T01:20:53.202Z,3.53
2017-12-15T01:21:53.214Z,3.53
2017-12-15T01:22:53.478Z,3.62
2017-12-15T01:23:53.492Z,3.56
2017-12-15T01:24:53.607Z,3.47
2017-12-15T01:25:53.264Z,3.6
2017-12-15T01:26:53.274Z,3.55
2017-12-15T01:27:53.301Z,3.51
2017-12-15T01:28:53.052Z,3.48
2017-12-15T01:29:53.574Z,3.47
2017-12-15T01:30:53.333Z,3.44
2017-12-15T01:31:53.594Z,3.55
2017-12-15T01:32:53.366Z,3.59
2017-12-15T01:33:53.367Z,3.59
2017-12-15T01:34:53.686Z,3.59
2017-12-15T01:35:53.647Z,3.48
2017-12-15T01:36:53.410Z,3.56
2017-12-15T01:37:53.421Z,3.47
2017-12-15T01:38:53.440Z,3.51
2017-12-15T01:39:53.452Z,3.6
2017-12-15T01:40:53.462Z,3.6
2017-12-15T01:41:53.726Z,3.59
2017-12-15T01:42:53.506Z,3.65
2017-12-15T01:43:53.501Z,3.63
2017-12-15T01:44:53.517Z,3.55
2017-12-15T01:45:53.792Z,3.65
2017-12-15T01:46:53.558Z,3.65
2017-12-15T01:47:53.806Z,3.73
2017-12-15T01:48:53.314Z,3.65
2017-12-15T01:49:53.632Z,3.58
2017-12-15T01:50:53.844Z,3.66
2017-12-15T01:51:53.643Z,3.6
2017-12-15T01:52:53.615Z,3.59
2017-12-15T01:53:53.887Z,3.6
2017-12-15T01:54:53.898Z,3.65
2017-12-15T01:55:53.658Z,3.56
2017-12-15T01:56:53.926Z,3.51
2017-12-15T01:57:53.691Z,3.47
2017-12-15T01:58:53.949Z,3.53
2017-12-15T01:59:53.960Z,3.6
2017-12-15T02:00:53.472Z,3.65
2017-12-15T02:01:53.739Z,3.5
2017-12-15T02:02:54.005Z,3.45
2017-12-15T02:03:54.049Z,3.51
2017-12-15T02:04:54.077Z,3.5
2017-12-15T02:05:53.787Z,3.47
2017-12-15T02:06:54.054Z,3.48
2017-12-15T02:07:54.070Z,3.5
2017-12-15T02:08:54.084Z,3.5
2017-12-15T02:09:53.839Z,3.4
2017-12-15T02:10:53.855Z,3.29
2017-12-15T02:11:53.870Z,3.29
2017-12-15T02:12:54.135Z,3.34
2017-12-15T02:13:54.146Z,3.31
2017-12-15T02:14:54.163Z,3.47
2017-12-15T02:15:53.915Z,3.45
2017-12-15T02:16:53.935Z,3.5
2017-12-15T02:17:54.203Z,3.53
2017-12-15T02:18:54.226Z,3.55
2017-12-15T02:19:54.276Z,3.55
2017-12-15T02:20:54.239Z,3.42
2017-12-15T02:21:54.249Z,3.34
2017-12-15T02:22:54.269Z,3.36
2017-12-15T02:23:54.277Z,3.34
2017-12-15T02:24:54.290Z,3.37
2017-12-15T02:25:54.303Z,3.4
2017-12-15T02:26:54.314Z,3.37
2017-12-15T02:27:54.341Z,3.32
2017-12-15T02:28:54.090Z,3.36
2017-12-15T02:29:54.108Z,3.36
2017-12-15T02:30:54.121Z,3.4
2017-12-15T02:31:54.385Z,3.28
2017-12-15T02:32:54.401Z,3.34
2017-12-15T02:33:54.413Z,3.22
2017-12-15T02:34:54.473Z,3.45
2017-12-15T02:35:54.433Z,3.53
2017-12-15T02:36:54.449Z,3.56
2017-12-15T02:37:54.229Z,3.56
2017-12-15T02:38:53.966Z,3.55
2017-12-15T02:39:54.487Z,3.59
2017-12-15T02:40:54.251Z,3.62
2017-12-15T02:41:54.261Z,3.51
2017-12-15T02:42:54.531Z,3.48
2017-12-15T02:43:54.544Z,3.56
2017-12-15T02:44:54.558Z,3.6
2017-12-15T02:45:54.566Z,3.55
2017-12-15T02:46:54.340Z,3.48
2017-12-15T02:47:54.340Z,3.51
2017-12-15T02:48:54.676Z,3.48
2017-12-15T02:49:54.693Z,3.34
2017-12-15T02:50:54.378Z,3.41
2017-12-15T02:51:54.643Z,3.44
2017-12-15T02:52:54.660Z,3.5
2017-12-15T02:53:54.416Z,3.48
2017-12-15T02:54:54.452Z,3.5
2017-12-15T02:55:54.694Z,3.5
2017-12-15T02:56:54.716Z,3.47
2017-12-15T02:57:54.467Z,3.48
2017-12-15T02:58:54.731Z,3.48
2017-12-15T02:59:54.494Z,3.56
2017-12-15T03:00:54.756Z,3.5
2017-12-15T03:01:54.266Z,3.62
2017-12-15T03:02:54.534Z,3.55
2017-12-15T03:03:54.794Z,3.63
2017-12-15T03:04:56.215Z,3.56
2017-12-15T03:05:54.592Z,3.59
2017-12-15T03:06:54.585Z,3.73
2017-12-15T03:07:54.854Z,3.69
2017-12-15T03:08:54.862Z,3.68
2017-12-15T03:09:54.370Z,3.65
2017-12-15T03:10:54.891Z,3.62
2017-12-15T03:11:54.897Z,3.56
2017-12-15T03:12:54.663Z,3.59
2017-12-15T03:13:54.936Z,3.74
2017-12-15T03:14:54.939Z,3.76
2017-12-15T03:15:54.955Z,3.78
2017-12-15T03:16:54.968Z,3.81
2017-12-15T03:17:54.729Z,3.81
2017-12-15T03:18:54.994Z,3.81
2017-12-15T03:19:54.803Z,3.74
2017-12-15T03:20:54.519Z,3.73
2017-12-15T03:21:54.781Z,3.6
2017-12-15T03:22:55.048Z,3.69
2017-12-15T03:23:54.811Z,3.74
2017-12-15T03:24:55.075Z,3.77
2017-12-15T03:25:55.084Z,3.77
2017-12-15T03:26:55.100Z,3.65
2017-12-15T03:27:54.863Z,3.65
2017-12-15T03:28:55.128Z,3.73
2017-12-15T03:29:54.898Z,3.74
2017-12-15T03:30:55.175Z,3.76
2017-12-15T03:31:55.190Z,3.83
2017-12-15T03:32:55.182Z,3.8
2017-12-15T03:33:55.188Z,3.59
2017-12-15T03:34:55.257Z,3.77
2017-12-15T03:35:54.965Z,3.74
2017-12-15T03:36:54.979Z,3.78
2017-12-15T03:37:55.004Z,3.77
2017-12-15T03:38:55.253Z,3.81
2017-12-15T03:39:55.273Z,3.73
2017-12-15T03:40:55.283Z,3.73
2017-12-15T03:41:55.295Z,3.7
2017-12-15T03:42:55.062Z,3.77
2017-12-15T03:43:55.330Z,3.78
2017-12-15T03:44:55.093Z,3.76
2017-12-15T03:45:55.351Z,3.92
2017-12-15T03:46:55.377Z,3.81
2017-12-15T03:47:55.375Z,3.95
2017-12-15T03:48:54.897Z,3.84
2017-12-15T03:49:55.204Z,4.02
2017-12-15T03:50:55.417Z,3.99
2017-12-15T03:51:55.428Z,4.02
2017-12-15T03:52:55.192Z,3.98
2017-12-15T03:53:55.459Z,3.98
2017-12-15T03:54:54.963Z,3.96
2017-12-15T03:55:55.478Z,4.02
2017-12-15T03:56:55.501Z,3.99
2017-12-15T03:57:55.509Z,4.08
2017-12-15T03:58:55.272Z,4.08
2017-12-15T03:59:55.538Z,4.16
2017-12-15T04:00:55.294Z,4.16
2017-12-15T04:01:55.557Z,4.17
2017-12-15T04:02:55.323Z,4.2
2017-12-15T04:03:55.334Z,4.28
2017-12-15T04:04:55.651Z,4.2
2017-12-15T04:05:55.631Z,4.19
2017-12-15T04:06:55.671Z,4.13
2017-12-15T04:07:55.135Z,4.08
2017-12-15T04:08:55.651Z,4.04
2017-12-15T04:09:55.666Z,4.14
2017-12-15T04:10:55.676Z,4.13
2017-12-15T04:11:55.442Z,4.3
2017-12-15T04:12:55.710Z,4.3
2017-12-15T04:13:55.718Z,4.31
2017-12-15T04:14:55.732Z,4.2
2017-12-15T04:15:55.490Z,4.35
2017-12-15T04:16:55.758Z,4.28
2017-12-15T04:17:55.777Z,4.24
2017-12-15T04:18:55.280Z,4.23
2017-12-15T04:19:55.603Z,4.38
2017-12-15T04:20:55.309Z,4.28
2017-12-15T04:21:55.830Z,4.2
2017-12-15T04:22:55.837Z,4.16
2017-12-15T04:23:55.599Z,4.14
2017-12-15T04:24:55.877Z,4.19
2017-12-15T04:25:55.629Z,4.14
2017-12-15T04:26:55.895Z,4.19
2017-12-15T04:27:55.913Z,4.14
2017-12-15T04:28:55.917Z,4.13
2017-12-15T04:29:55.686Z,4.16
2017-12-15T04:30:55.950Z,4.13
2017-12-15T04:31:55.456Z,4.02
2017-12-15T04:32:55.487Z,4.12
2017-12-15T04:33:55.987Z,4.01
2017-12-15T04:34:55.803Z,4.19
2017-12-15T04:35:56.012Z,4.14
2017-12-15T04:36:55.776Z,4.14
2017-12-15T04:37:55.791Z,4.12
2017-12-15T04:38:55.552Z,4.19
2017-12-15T04:39:56.069Z,4.16
2017-12-15T04:40:55.575Z,4.19
2017-12-15T04:41:56.153Z,4.19
2017-12-15T04:42:56.115Z,4.05
2017-12-15T04:43:55.872Z,4.02
2017-12-15T04:44:55.884Z,4.06
2017-12-15T04:45:56.153Z,4.08
2017-12-15T04:46:55.908Z,4.17
2017-12-15T04:47:55.925Z,4.13
2017-12-15T04:48:55.683Z,4.19
2017-12-15T04:49:56.249Z,4.06
2017-12-15T04:50:56.221Z,4.17
2017-12-15T04:51:56.231Z,4.19
2017-12-15T04:52:55.992Z,4.13
2017-12-15T04:53:56.258Z,4.08
2017-12-15T04:54:56.037Z,4.1
2017-12-15T04:55:56.033Z,4.04
2017-12-15T04:56:56.045Z,4.04
2017-12-15T04:57:56.060Z,4.08
2017-12-15T04:58:56.347Z,4.04
2017-12-15T04:59:55.838Z,4.17
2017-12-15T05:00:56.364Z,4.13
2017-12-15T05:01:56.110Z,4.02
2017-12-15T05:02:56.122Z,4.19
2017-12-15T05:03:56.395Z,4.02
2017-12-15T05:04:56.410Z,3.98
2017-12-15T05:05:56.165Z,4.08
2017-12-15T05:06:56.432Z,4.02
2017-12-15T05:07:56.345Z,3.94
2017-12-15T05:08:56.461Z,3.88
2017-12-15T05:09:55.965Z,3.87
2017-12-15T05:10:56.484Z,3.98
2017-12-15T05:11:56.241Z,3.98
2017-12-15T05:12:56.509Z,4.06
2017-12-15T05:13:56.272Z,4.05
2017-12-15T05:14:56.535Z,4.01
2017-12-15T05:15:56.549Z,3.96
2017-12-15T05:16:56.311Z,3.96
2017-12-15T05:17:56.598Z,4.08
2017-12-15T05:18:56.337Z,4.02
2017-12-15T05:19:56.349Z,4.04
2017-12-15T05:20:56.621Z,3.96
2017-12-15T05:21:56.686Z,3.96
2017-12-15T05:22:56.439Z,4.06
2017-12-15T05:23:56.407Z,4.08
2017-12-15T05:24:56.418Z,4.16
2017-12-15T05:25:56.178Z,4.12
2017-12-15T05:26:56.442Z,4.06
2017-12-15T05:27:56.458Z,4.05
2017-12-15T05:28:56.470Z,4.06
2017-12-15T05:29:56.485Z,4.02
2017-12-15T05:30:56.753Z,4.06
2017-12-15T05:31:56.758Z,4.14
2017-12-15T05:32:56.581Z,4.06
2017-12-15T05:33:56.790Z,4.06
2017-12-15T05:34:56.552Z,4.12
2017-12-15T05:35:56.818Z,4.12
2017-12-15T05:36:56.599Z,4.19
2017-12-15T05:37:56.889Z,4.2
2017-12-15T05:38:56.853Z,4.2
2017-12-15T05:39:56.870Z,4.16
2017-12-15T05:40:56.887Z,4.2
2017-12-15T05:41:56.898Z,4.16
2017-12-15T05:42:56.656Z,4.19
2017-12-15T05:43:56.671Z,4.32
2017-12-15T05:44:56.934Z,4.31
2017-12-15T05:45:56.945Z,4.22
2017-12-15T05:46:56.966Z,4.17
2017-12-15T05:47:56.772Z,4.26
2017-12-15T05:48:56.734Z,4.34
2017-12-15T05:49:57.074Z,4.4
2017-12-15T05:50:57.015Z,4.37
2017-12-15T05:51:56.776Z,4.32
2017-12-15T05:52:57.094Z,4.37
2017-12-15T05:53:56.805Z,4.48
2017-12-15T05:54:56.824Z,4.49
2017-12-15T05:55:57.081Z,4.63
2017-12-15T05:56:56.852Z,4.62
2017-12-15T05:57:56.865Z,4.45
2017-12-15T05:58:57.125Z,4.44
2017-12-15T05:59:56.637Z,4.4
2017-12-15T06:00:56.900Z,4.52
2017-12-15T06:01:57.168Z,4.38
2017-12-15T06:02:57.183Z,4.48
2017-12-15T06:03:57.192Z,4.38
2017-12-15T06:04:56.954Z,4.42
2017-12-15T06:05:57.226Z,4.52
2017-12-15T06:06:56.982Z,4.49
2017-12-15T06:07:57.046Z,4.37
2017-12-15T06:08:57.259Z,4.41
2017-12-15T06:09:57.278Z,4.44
2017-12-15T06:10:57.037Z,4.4
2017-12-15T06:11:57.048Z,4.26
2017-12-15T06:12:57.086Z,4.34
2017-12-15T06:13:57.332Z,4.19
2017-12-15T06:14:57.343Z,4.42
2017-12-15T06:15:57.106Z,4.38
2017-12-15T06:16:57.374Z,4.37
2017-12-15T06:17:57.131Z,4.38
2017-12-15T06:18:57.403Z,4.4
2017-12-15T06:19:57.165Z,4.34
2017-12-15T06:20:56.919Z,4.2
2017-12-15T06:21:56.933Z,4.34
2017-12-15T06:22:57.397Z,4.26
2017-12-15T06:23:57.213Z,4.16
2017-12-15T06:24:57.481Z,4.22
2017-12-15T06:25:57.498Z,4.16
2017-12-15T06:26:57.252Z,4.31
2017-12-15T06:27:57.517Z,4.17
2017-12-15T06:28:57.278Z,4.05
2017-12-15T06:29:57.314Z,4.19
2017-12-15T06:30:57.314Z,4.12
2017-12-15T06:31:57.323Z,4.16
2017-12-15T06:32:57.593Z,4.16
2017-12-15T06:33:57.604Z,4.12
2017-12-15T06:34:57.361Z,4.01
2017-12-15T06:35:57.632Z,4.04
2017-12-15T06:36:57.396Z,3.96
2017-12-15T06:37:57.404Z,4.04
2017-12-15T06:38:57.726Z,4.06
2017-12-15T06:39:57.684Z,4.02
2017-12-15T06:40:57.445Z,4.06
2017-12-15T06:41:57.719Z,4.04
2017-12-15T06:42:57.727Z,4.05
2017-12-15T06:43:57.479Z,4.08
2017-12-15T06:44:57.749Z,4.16
2017-12-15T06:45:57.514Z,4.19
2017-12-15T06:46:57.520Z,4.04
2017-12-15T06:47:57.283Z,4.06
2017-12-15T06:48:57.568Z,4.06
2017-12-15T06:49:57.310Z,4.05
2017-12-15T06:50:57.835Z,4.08
2017-12-15T06:51:57.591Z,4.01
2017-12-15T06:52:57.603Z,3.99
2017-12-15T06:53:57.926Z,4.13
2017-12-15T06:54:57.633Z,4.04
2017-12-15T06:55:57.915Z,4.19
2017-12-15T06:56:57.916Z,4.08
2017-12-15T06:57:57.926Z,4.06
2017-12-15T06:58:57.927Z,4.1
2017-12-15T06:59:57.694Z,4.17
2017-12-15T07:00:57.454Z,3.96
2017-12-15T07:01:57.821Z,4.05
2017-12-15T07:02:57.734Z,4.19
2017-12-15T07:03:58.008Z,4.05
2017-12-15T07:04:57.769Z,3.95
2017-12-15T07:05:58.051Z,3.78
2017-12-15T07:06:57.790Z,3.8
2017-12-15T07:07:58.054Z,3.78
2017-12-15T07:08:58.227Z,3.96
2017-12-15T07:09:57.829Z,3.99
2017-12-15T07:10:57.849Z,3.96
2017-12-15T07:11:58.113Z,3.88
2017-12-15T07:12:58.125Z,3.87
2017-12-15T07:13:57.882Z,3.8
2017-12-15T07:14:57.905Z,3.87
2017-12-15T07:15:58.170Z,3.91
2017-12-15T07:16:58.185Z,3.99
2017-12-15T07:17:58.207Z,4.2
2017-12-15T07:18:57.953Z,4.17
2017-12-15T07:19:57.967Z,4.1
2017-12-15T07:20:57.982Z,4.19
2017-12-15T07:21:57.994Z,4.24
2017-12-15T07:22:58.286Z,4.04
2017-12-15T07:23:58.319Z,4.17
2017-12-15T07:24:58.051Z,4.14
2017-12-15T07:25:58.046Z,4.24
2017-12-15T07:26:58.315Z,4.31
2017-12-15T07:27:58.328Z,4.32
2017-12-15T07:28:58.092Z,4.22
2017-12-15T07:29:57.848Z,4.14
2017-12-15T07:30:58.115Z,4.28
2017-12-15T07:31:58.384Z,4.2
2017-12-15T07:32:57.914Z,4.2
2017-12-15T07:33:58.159Z,4.34
2017-12-15T07:34:58.425Z,4.28
2017-12-15T07:35:58.439Z,4.23
2017-12-15T07:36:58.507Z,4.28
2017-12-15T07:37:58.466Z,4.3
2017-12-15T07:38:58.528Z,4.28
2017-12-15T07:39:58.239Z,4.19
2017-12-15T07:40:58.508Z,4.17
2017-12-15T07:41:58.012Z,4.2
2017-12-15T07:42:58.534Z,4.17
2017-12-15T07:43:58.548Z,4.22
2017-12-15T07:44:58.563Z,4.12
2017-12-15T07:45:58.322Z,4.16
2017-12-15T07:46:58.586Z,4.16
2017-12-15T07:47:58.345Z,4.13
2017-12-15T07:48:58.369Z,4.22
2017-12-15T07:49:58.630Z,4.16
2017-12-15T07:50:58.389Z,4.16
2017-12-15T07:51:58.664Z,4.13
2017-12-15T07:52:58.416Z,4.34
2017-12-15T07:53:58.731Z,4.24
2017-12-15T07:54:58.697Z,4.26
2017-12-15T07:55:58.456Z,4.3
2017-12-15T07:56:58.472Z,4.23
2017-12-15T07:57:58.738Z,4.13
2017-12-15T07:58:58.499Z,4.01
2017-12-15T07:59:58.564Z,4.13
2017-12-15T08:00:58.793Z,4.23
2017-12-15T08:01:58.539Z,4.14
2017-12-15T08:02:58.814Z,4.16
2017-12-15T08:03:58.571Z,4.23
2017-12-15T08:04:58.581Z,4.17
2017-12-15T08:05:58.851Z,4.2
2017-12-15T08:06:58.861Z,4.13
2017-12-15T08:07:58.877Z,4.22
2017-12-15T08:08:58.940Z,4.26
2017-12-15T08:09:58.651Z,4.04
2017-12-15T08:10:58.931Z,4.16
2017-12-15T08:11:58.426Z,4.16
2017-12-15T08:12:58.902Z,4.22
2017-12-15T08:13:58.452Z,4.23
2017-12-15T08:14:58.975Z,4.28
2017-12-15T08:15:58.986Z,4.13
2017-12-15T08:16:58.741Z,4.2
2017-12-15T08:17:58.770Z,4.28
2017-12-15T08:18:59.024Z,4.24
2017-12-15T08:19:59.038Z,4.22
2017-12-15T08:20:58.801Z,4.17
2017-12-15T08:21:59.068Z,4.22
2017-12-15T08:22:58.823Z,4.2
2017-12-15T08:23:58.890Z,4.16
2017-12-15T08:24:59.107Z,4.41
2017-12-15T08:25:59.119Z,4.42
2017-12-15T08:26:59.130Z,4.4
2017-12-15T08:27:58.898Z,4.4
2017-12-15T08:28:59.164Z,4.32
2017-12-15T08:29:58.925Z,4.37
2017-12-15T08:30:59.191Z,4.19
2017-12-15T08:31:59.205Z,4.22
2017-12-15T08:32:59.224Z,4.19
2017-12-15T08:33:58.777Z,4.3
2017-12-15T08:34:58.994Z,4.34
2017-12-15T08:35:59.264Z,4.49
2017-12-15T08:36:59.020Z,4.41
2017-12-15T08:37:59.037Z,4.34
2017-12-15T08:38:59.455Z,4.31
2017-12-15T08:39:59.314Z,4.28
2017-12-15T08:40:59.332Z,4.3
2017-12-15T08:41:59.089Z,4.23
2017-12-15T08:42:59.102Z,4.4
2017-12-15T08:43:59.370Z,4.31
2017-12-15T08:44:59.131Z,4.2
2017-12-15T08:45:59.400Z,4.35
2017-12-15T08:46:59.158Z,4.38
2017-12-15T08:47:58.918Z,4.37
2017-12-15T08:48:59.193Z,4.5
2017-12-15T08:49:59.437Z,4.56
2017-12-15T08:50:59.499Z,4.58
2017-12-15T08:51:59.464Z,4.45
2017-12-15T08:52:59.476Z,4.48
2017-12-15T08:53:59.497Z,4.49
2017-12-15T08:54:59.018Z,4.55
2017-12-15T08:55:59.537Z,4.6
2017-12-15T08:56:59.047Z,4.75
2017-12-15T08:57:59.316Z,4.56
2017-12-15T08:58:59.587Z,4.68
2017-12-15T08:59:59.596Z,4.7
2017-12-15T09:00:59.610Z,4.77
2017-12-15T09:01:59.620Z,4.92
2017-12-15T09:02:59.386Z,4.96
2017-12-15T09:03:59.401Z,4.93
2017-12-15T09:04:59.667Z,5.1
2017-12-15T09:05:59.442Z,5.15
2017-12-15T09:06:59.708Z,5.17
2017-12-15T09:07:59.454Z,5.23
2017-12-15T09:08:59.469Z,5.15
2017-12-15T09:09:59.740Z,5.17
2017-12-15T09:10:59.521Z,5.28
2017-12-15T09:11:59.769Z,5.14
2017-12-15T09:12:59.529Z,5.15
2017-12-15T09:13:59.796Z,5.35
2017-12-15T09:14:59.630Z,5.23
2017-12-15T09:15:59.832Z,5.2
2017-12-15T09:16:59.841Z,5.26
2017-12-15T09:17:59.603Z,5.3
2017-12-15T09:18:59.876Z,5.23
2017-12-15T09:19:59.893Z,5.26
2017-12-15T09:20:59.896Z,5.2
2017-12-15T09:21:59.716Z,5.21
2017-12-15T09:22:59.932Z,5.39
2017-12-15T09:23:59.948Z,5.32
2017-12-15T09:24:59.963Z,5.33
2017-12-15T09:25:59.467Z,5.38
2017-12-15T09:27:00.036Z,5.32
2017-12-15T09:27:59.752Z,5.25
2017-12-15T09:29:00.021Z,5.29
2017-12-15T09:29:59.777Z,5.41
2017-12-15T09:30:59.847Z,5.47
2017-12-15T09:31:59.558Z,5.46
2017-12-15T09:33:00.093Z,5.59
2017-12-15T09:34:00.094Z,5.62
2017-12-15T09:34:59.862Z,5.46
2017-12-15T09:35:59.868Z,5.48
2017-12-15T09:36:59.890Z,5.54
2017-12-15T09:38:00.156Z,5.53
2017-12-15T09:38:59.917Z,5.59
2017-12-15T09:39:59.937Z,5.48
2017-12-15T09:40:59.696Z,5.57
2017-12-15T09:42:00.014Z,5.57
2017-12-15T09:42:59.723Z,5.56
2017-12-15T09:44:00.263Z,5.54
2017-12-15T09:45:00.280Z,5.64
2017-12-15T09:46:00.272Z,5.66
2017-12-15T09:47:00.288Z,5.71
2017-12-15T09:48:00.053Z,5.64
2017-12-15T09:49:00.317Z,5.68
2017-12-15T09:50:00.329Z,5.73
2017-12-15T09:51:00.344Z,5.75
2017-12-15T09:52:00.158Z,5.89
2017-12-15T09:53:00.379Z,5.83
2017-12-15T09:54:00.183Z,5.89
2017-12-15T09:55:00.158Z,5.97
2017-12-15T09:56:00.480Z,6.09
2017-12-15T09:57:00.494Z,6.35
2017-12-15T09:57:59.953Z,6.63
2017-12-15T09:58:59.969Z,6.72
2017-12-15T10:00:00.493Z,6.84
2017-12-15T10:01:00.257Z,6.95
2017-12-15T10:02:00.645Z,7.02
2017-12-15T10:03:00.297Z,7.25
2017-12-15T10:04:00.565Z,7.45
2017-12-15T10:05:00.330Z,7.7
2017-12-15T10:06:00.348Z,8.01
2017-12-15T10:07:00.630Z,8.15
2017-12-15T10:08:00.385Z,8.09
2017-12-15T10:09:00.404Z,8.06
2017-12-15T10:10:00.422Z,8.01
2017-12-15T10:11:00.707Z,8.26
2017-12-15T10:12:00.518Z,8.46
2017-12-15T10:13:00.748Z,8.7
2017-12-15T10:14:00.507Z,8.7
2017-12-15T10:15:00.784Z,8.51
2017-12-15T10:16:00.546Z,8.71
2017-12-15T10:17:00.317Z,8.69
2017-12-15T10:18:00.592Z,8.63
2017-12-15T10:19:00.942Z,8.52
2017-12-15T10:20:00.632Z,8.2
2017-12-15T10:21:00.922Z,8.09
2017-12-15T10:22:00.927Z,8.03
2017-12-15T10:23:00.773Z,8.1
2017-12-15T10:24:00.976Z,8.01
2017-12-15T10:25:00.740Z,7.93
2017-12-15T10:26:01.014Z,8.12
2017-12-15T10:27:01.085Z,8.26
2017-12-15T10:28:00.833Z,8.58
2017-12-15T10:29:01.078Z,8.82
2017-12-15T10:30:00.884Z,8.92
2017-12-15T10:31:01.127Z,9.4
2017-12-15T10:32:00.892Z,9.39
2017-12-15T10:33:01.166Z,9.34
2017-12-15T10:34:00.930Z,9.37
2017-12-15T10:35:01.213Z,9.66
2017-12-15T10:36:00.975Z,10.04
2017-12-15T10:37:00.998Z,10.23
2017-12-15T10:38:01.275Z,10.42
2017-12-15T10:39:01.295Z,10.56
2017-12-15T10:40:01.320Z,10.71
2017-12-15T10:41:01.091Z,10.69
2017-12-15T10:42:01.414Z,10.51
2017-12-15T10:43:01.131Z,10.53
2017-12-15T10:44:01.200Z,10.61
2017-12-15T10:45:01.187Z,10.46
2017-12-15T10:46:01.217Z,10.51
2017-12-15T10:47:01.502Z,10.69
2017-12-15T10:48:01.257Z,10.76
2017-12-15T10:49:01.533Z,10.48
2017-12-15T10:50:01.546Z,10.63
2017-12-15T10:51:01.386Z,10.79
2017-12-15T10:52:01.602Z,10.33
2017-12-15T10:53:01.387Z,10.41
2017-12-15T10:54:01.397Z,10.41
2017-12-15T10:55:01.419Z,10.72
2017-12-15T10:56:01.697Z,10.9
2017-12-15T10:57:01.522Z,11.15
2017-12-15T10:58:01.506Z,11.47
2017-12-15T10:59:01.774Z,11.05
2017-12-15T11:00:01.801Z,10.9
2017-12-15T11:01:01.579Z,10.71
2017-12-15T11:02:01.340Z,10.94
2017-12-15T11:03:01.620Z,11.1
2017-12-15T11:04:01.647Z,10.84
2017-12-15T11:05:01.414Z,10.82
2017-12-15T11:06:01.958Z,11.05
2017-12-15T11:07:01.966Z,11.41
2017-12-15T11:08:01.995Z,11.52
2017-12-15T11:09:01.767Z,11.75
2017-12-15T11:10:02.045Z,11.84
2017-12-15T11:11:01.817Z,11.99
2017-12-15T11:12:02.146Z,12.1
2017-12-15T11:13:01.867Z,12.39
2017-12-15T11:14:02.149Z,12.6
2017-12-15T11:15:02.171Z,12.75
2017-12-15T11:16:01.945Z,12.57
2017-12-15T11:17:02.224Z,12.7
2017-12-15T11:18:02.249Z,12.55
2017-12-15T11:19:02.271Z,12.35
2017-12-15T11:20:02.299Z,12.2
2017-12-15T11:21:02.074Z,12.18
2017-12-15T11:22:02.101Z,12.47
2017-12-15T11:23:01.872Z,12.31
2017-12-15T11:24:02.405Z,12.29
2017-12-15T11:25:02.179Z,12.04
2017-12-15T11:26:02.464Z,12.43
2017-12-15T11:27:02.280Z,12.46
2017-12-15T11:28:02.510Z,12.65
2017-12-15T11:29:02.281Z,12.82
2017-12-15T11:30:02.560Z,12.93
2017-12-15T11:31:02.596Z,12.32
2017-12-15T11:32:02.361Z,12.02
2017-12-15T11:33:02.393Z,12.29
2017-12-15T11:34:02.673Z,12.62
2017-12-15T11:35:02.703Z,12.31
2017-12-15T11:36:02.722Z,12.35
2017-12-15T11:37:02.242Z,12.03
2017-12-15T11:38:02.527Z,11.77
2017-12-15T11:39:02.803Z,11.87
2017-12-15T11:40:02.576Z,12.39
2017-12-15T11:41:02.859Z,11.97
2017-12-15T11:42:02.934Z,12.31
2017-12-15T11:43:02.914Z,11.05
2017-12-15T11:44:02.936Z,11.07
2017-12-15T11:45:02.961Z,11.04
2017-12-15T11:46:02.736Z,10.89
2017-12-15T11:47:02.760Z,10.75
2017-12-15T11:48:02.784Z,11.07
2017-12-15T11:49:03.065Z,11.29
2017-12-15T11:50:02.834Z,11.66
2017-12-15T11:51:03.122Z,12.06
2017-12-15T11:52:02.890Z,12.18
2017-12-15T11:53:03.165Z,12.61
2017-12-15T11:54:03.194Z,12.43
2017-12-15T11:55:03.220Z,12.35
2017-12-15T11:56:03.250Z,12.32
2017-12-15T11:57:03.070Z,12.43
2017-12-15T11:58:03.301Z,12.57
2017-12-15T11:59:03.339Z,12.85
2017-12-15T12:00:03.364Z,12.73
2017-12-15T12:01:03.388Z,12.73
2017-12-15T12:02:03.155Z,12.73
2017-12-15T12:03:03.437Z,12.64
2017-12-15T12:04:03.481Z,12.73
2017-12-15T12:05:03.257Z,12.82
2017-12-15T12:06:03.517Z,12.87
2017-12-15T12:07:03.559Z,12.73
2017-12-15T12:08:03.060Z,12.46
2017-12-15T12:09:03.084Z,12.49
2017-12-15T12:10:03.368Z,12.61
2017-12-15T12:11:03.394Z,12.64
2017-12-15T12:12:03.821Z,12.46
2017-12-15T12:13:03.472Z,12.4
2017-12-15T12:14:03.475Z,12.79
2017-12-15T12:15:03.777Z,13.05
2017-12-15T12:16:03.532Z,13.28
2017-12-15T12:17:03.556Z,13.33
2017-12-15T12:18:03.580Z,13.56
2017-12-15T12:19:03.864Z,13.49
2017-12-15T12:20:03.640Z,13.83
2017-12-15T12:21:03.663Z,13.96
2017-12-15T12:22:03.942Z,14.3
2017-12-15T12:23:03.728Z,14.12
2017-12-15T12:24:03.999Z,14.58
2017-12-15T12:25:04.082Z,14.72
2017-12-15T12:26:04.055Z,14.51
2017-12-15T12:27:03.878Z,14.91
2017-12-15T12:28:03.864Z,15.33
2017-12-15T12:29:03.881Z,15.21
2017-12-15T12:30:04.168Z,15.18
2017-12-15T12:31:04.192Z,15.06
2017-12-15T12:32:04.221Z,15.35
2017-12-15T12:33:04.249Z,15.49
2017-12-15T12:34:04.273Z,15.79
2017-12-15T12:35:04.049Z,15.44
2017-12-15T12:36:04.334Z,15.35
2017-12-15T12:37:04.358Z,15.33
2017-12-15T12:38:04.134Z,15.22
2017-12-15T12:39:04.435Z,15.17
2017-12-15T12:40:03.937Z,15.35
2017-12-15T12:41:04.475Z,14.05
2017-12-15T12:42:04.506Z,13.81
2017-12-15T12:43:04.527Z,14.11
2017-12-15T12:44:04.560Z,14.36
2017-12-15T12:45:04.349Z,14.04
2017-12-15T12:46:04.361Z,13.81
2017-12-15T12:47:04.653Z,13.71
2017-12-15T12:48:04.670Z,13.65
2017-12-15T12:49:04.699Z,13.52
2017-12-15T12:50:04.722Z,13.89
2017-12-15T12:51:04.752Z,13.85
2017-12-15T12:52:04.537Z,14.22
2017-12-15T12:53:04.567Z,14
2017-12-15T12:54:04.324Z,13.65
2017-12-15T12:55:04.612Z,13.47
2017-12-15T12:56:04.629Z,13.15
2017-12-15T12:57:04.659Z,12.9
2017-12-15T12:58:04.687Z,12.13
2017-12-15T12:59:05.009Z,12.27
2017-12-15T13:00:04.993Z,12.32
2017-12-15T13:01:05.013Z,11.97
2017-12-15T13:02:04.783Z,11.6
2017-12-15T13:03:05.054Z,11.35
2017-12-15T13:04:04.826Z,11.23
2017-12-15T13:05:04.857Z,11.43
2017-12-15T13:06:04.872Z,11.02
2017-12-15T13:07:05.149Z,10.72
2017-12-15T13:08:05.167Z,10.87
2017-12-15T13:09:05.198Z,11.07
2017-12-15T13:10:05.214Z,10.84
2017-12-15T13:11:04.983Z,10.35
2017-12-15T13:12:05.003Z,10.41
2017-12-15T13:13:05.025Z,10.3
2017-12-15T13:14:05.352Z,10.46
2017-12-15T13:15:05.355Z,9.99
2017-12-15T13:16:05.085Z,9.95
2017-12-15T13:17:05.108Z,9.92